createdAt,value
2018-01-12T00:02:18.455Z,89.60
2018-01-12T00:04:44.362Z,89.00
2018-01-12T00:07:10.273Z,89.30
2018-01-12T00:09:36.938Z,88.70
2018-01-12T00:12:02.867Z,88.70
2018-01-12T00:14:28.810Z,87.00
2018-01-12T00:16:54.730Z,87.50
2018-01-12T00:19:20.641Z,87.20
2018-01-12T00:21:47.293Z,87.40
2018-01-12T00:24:13.217Z,87.30
2018-01-12T00:26:39.140Z,88.10
2018-01-12T00:29:05.057Z,87.30
2018-01-12T00:31:30.990Z,87.90
2018-01-12T00:33:56.933Z,88.30
2018-01-12T00:36:22.854Z,88.50
2018-01-12T00:38:48.798Z,87.70
2018-01-12T00:41:14.725Z,87.80
2018-01-12T00:43:40.666Z,88.00
2018-01-12T00:46:06.593Z,88.30
2018-01-12T00:48:32.546Z,88.70
2018-01-12T00:50:58.501Z,89.10
2018-01-12T00:53:24.434Z,89.10
2018-01-12T00:55:50.354Z,89.00
2018-01-12T00:58:16.303Z,88.70
2018-01-12T01:00:42.227Z,88.60
2018-01-12T01:03:08.149Z,88.10
2018-01-12T01:05:34.117Z,87.40
2018-01-12T01:08:00.805Z,87.10
2018-01-12T01:10:26.725Z,86.90
2018-01-12T01:12:52.650Z,87.30
2018-01-12T01:15:19.310Z,87.60
2018-01-12T01:17:45.238Z,87.60
2018-01-12T01:20:11.153Z,87.50
2018-01-12T01:22:37.828Z,87.50
2018-01-12T01:25:03.749Z,87.40
2018-01-12T01:27:30.417Z,86.90
2018-01-12T01:29:56.348Z,86.90
2018-01-12T01:32:22.278Z,87.40
2018-01-12T01:34:48.203Z,87.40
2018-01-12T01:37:14.856Z,87.70
2018-01-12T01:39:41.513Z,86.50
2018-01-12T01:42:07.421Z,86.50
2018-01-12T01:44:34.082Z,87.60
2018-01-12T01:47:00.750Z,87.60
2018-01-12T01:49:27.443Z,87.80
2018-01-12T01:51:53.371Z,87.80
2018-01-12T01:54:19.297Z,88.30
2018-01-12T01:56:45.217Z,88.60
2018-01-12T01:59:11.159Z,88.60
2018-01-12T02:01:37.077Z,88.70
2018-01-12T02:04:03.030Z,88.40
2018-01-12T02:06:28.950Z,88.90
2018-01-12T02:08:54.873Z,89.20
2018-01-12T02:11:21.534Z,89.70
2018-01-12T02:13:47.466Z,89.60
2018-01-12T02:16:13.396Z,89.70
2018-01-12T02:18:39.310Z,89.80
2018-01-12T02:21:05.961Z,88.50
2018-01-12T02:23:32.625Z,87.80
2018-01-12T02:25:59.296Z,87.60
2018-01-12T02:28:25.214Z,87.60
2018-01-12T02:30:51.128Z,88.30
2018-01-12T02:33:17.791Z,88.90
2018-01-12T02:35:44.448Z,89.00
2018-01-12T02:38:11.101Z,88.60
2018-01-12T02:40:37.013Z,88.50
2018-01-12T02:43:03.690Z,88.00
2018-01-12T02:45:29.622Z,88.40
2018-01-12T02:47:55.534Z,88.60
2018-01-12T02:50:22.197Z,86.80
2018-01-12T02:52:48.876Z,87.20
2018-01-12T02:55:14.793Z,87.20
2018-01-12T02:57:40.699Z,87.10
2018-01-12T03:00:06.619Z,86.90
2018-01-12T03:02:32.543Z,87.20
2018-01-12T03:04:58.503Z,87.20
2018-01-12T03:07:24.409Z,87.60
2018-01-12T03:09:50.347Z,88.30
2018-01-12T03:12:16.268Z,87.60
2018-01-12T03:14:42.193Z,87.90
2018-01-12T03:17:08.113Z,87.70
2018-01-12T03:19:34.045Z,87.70
2018-01-12T03:21:59.988Z,87.60
2018-01-12T03:24:25.920Z,87.60
2018-01-12T03:26:51.838Z,87.60
2018-01-12T03:29:17.748Z,88.00
2018-01-12T03:31:44.406Z,87.70
2018-01-12T03:34:11.064Z,87.30
2018-01-12T03:36:37.753Z,87.50
2018-01-12T03:39:03.692Z,87.60
2018-01-12T03:41:29.619Z,87.50
2018-01-12T03:43:55.533Z,86.30
2018-01-12T03:46:21.445Z,85.90
2018-01-12T03:48:48.109Z,87.20
2018-01-12T03:51:14.756Z,87.70
2018-01-12T03:53:41.421Z,88.40
2018-01-12T03:56:07.337Z,88.40
2018-01-12T03:58:34.012Z,87.50
2018-01-12T04:00:59.920Z,87.50
2018-01-12T04:03:26.606Z,87.80
2018-01-12T04:05:52.520Z,87.70
2018-01-12T04:08:18.445Z,87.80
2018-01-12T04:10:45.098Z,87.90
2018-01-12T04:13:11.750Z,87.50
2018-01-12T04:15:37.677Z,87.50
2018-01-12T04:18:04.329Z,87.10
2018-01-12T04:20:31.012Z,86.60
2018-01-12T04:22:56.941Z,86.60
2018-01-12T04:25:22.865Z,87.20
2018-01-12T04:27:49.224Z,87.60
2018-01-12T04:30:15.141Z,87.70
2018-01-12T04:32:41.049Z,87.50
2018-01-12T04:35:07.707Z,87.90
2018-01-12T04:37:34.382Z,87.20
2018-01-12T04:40:00.352Z,87.10
2018-01-12T04:42:26.314Z,87.50
2018-01-12T04:44:52.232Z,88.30
2018-01-12T04:47:18.145Z,89.20
2018-01-12T04:49:44.073Z,88.90
2018-01-12T04:52:09.976Z,88.90
2018-01-12T04:54:35.903Z,89.30
2018-01-12T04:57:02.570Z,89.50
2018-01-12T04:59:28.538Z,89.40
2018-01-12T05:01:54.445Z,89.60
2018-01-12T05:04:20.368Z,89.70
2018-01-12T05:06:46.298Z,89.30
2018-01-12T05:09:12.215Z,89.10
2018-01-12T05:11:38.883Z,89.30
2018-01-12T05:14:05.597Z,89.30
2018-01-12T05:16:31.542Z,89.30
2018-01-12T05:18:57.486Z,89.30
2018-01-12T05:21:24.151Z,89.10
2018-01-12T05:23:50.809Z,89.40
2018-01-12T05:26:16.722Z,89.40
2018-01-12T05:28:43.380Z,88.70
2018-01-12T05:31:10.021Z,88.60
2018-01-12T05:33:36.701Z,89.20
2018-01-12T05:36:02.620Z,88.70
2018-01-12T05:38:29.312Z,89.00
2018-01-12T05:40:55.242Z,89.00
2018-01-12T05:43:21.149Z,88.60
2018-01-12T05:45:47.066Z,88.30
2018-01-12T05:48:13.717Z,88.30
2018-01-12T05:50:40.372Z,88.40
2018-01-12T05:53:07.016Z,88.40
2018-01-12T05:55:33.718Z,87.50
2018-01-12T05:57:59.651Z,87.50
2018-01-12T06:00:25.572Z,87.40
2018-01-12T06:03:03.873Z,87.00
2018-01-12T06:05:42.916Z,87.40
2018-01-12T06:08:16.418Z,87.00
2018-01-12T06:10:43.073Z,87.10
2018-01-12T06:13:09.722Z,86.50
2018-01-12T06:15:36.393Z,86.30
2018-01-12T06:18:02.321Z,86.20
2018-01-12T06:20:29.040Z,86.30
2018-01-12T06:22:54.949Z,86.20
2018-01-12T06:25:20.870Z,85.60
2018-01-12T06:27:46.791Z,85.90
2018-01-12T06:30:12.716Z,86.30
2018-01-12T06:32:38.629Z,86.50
2018-01-12T06:35:05.289Z,87.00
2018-01-12T06:37:31.966Z,86.60
2018-01-12T06:39:57.888Z,86.40
2018-01-12T06:42:23.793Z,85.60
2018-01-12T06:44:50.457Z,86.70
2018-01-12T06:47:17.108Z,87.10
2018-01-12T06:49:43.781Z,87.30
2018-01-12T06:52:09.690Z,87.30
2018-01-12T06:54:36.346Z,88.20
2018-01-12T06:57:03.007Z,87.90
2018-01-12T06:59:28.948Z,87.70
2018-01-12T07:01:54.861Z,87.40
2018-01-12T07:04:21.523Z,87.70
2018-01-12T07:06:47.436Z,87.60
2018-01-12T07:09:14.113Z,88.30
2018-01-12T07:11:40.038Z,88.70
2018-01-12T07:14:06.718Z,86.00
2018-01-12T07:16:32.664Z,86.00
2018-01-12T07:18:58.624Z,85.50
2018-01-12T07:21:36.968Z,85.60
2018-01-12T07:24:03.629Z,87.60
2018-01-12T07:26:30.312Z,86.40
2018-01-12T07:28:56.249Z,86.40
2018-01-12T07:31:22.172Z,86.80
2018-01-12T07:33:48.085Z,86.50
2018-01-12T07:36:14.753Z,87.60
2018-01-12T07:38:40.670Z,87.50
2018-01-12T07:41:07.336Z,87.10
2018-01-12T07:43:33.989Z,86.10
2018-01-12T07:45:59.930Z,86.00
2018-01-12T07:48:25.844Z,85.40
2018-01-12T07:50:52.508Z,85.40
2018-01-12T07:53:20.428Z,85.30
2018-01-12T07:55:46.340Z,84.70
2018-01-12T07:58:12.257Z,85.10
2018-01-12T08:00:44.260Z,85.30
2018-01-12T08:03:10.173Z,85.90
2018-01-12T08:05:36.097Z,86.30
2018-01-12T08:08:02.021Z,86.80
2018-01-12T08:10:28.796Z,86.70
2018-01-12T08:12:54.767Z,86.70
2018-01-12T08:15:20.685Z,86.80
2018-01-12T08:17:46.595Z,86.90
2018-01-12T08:20:12.508Z,86.80
2018-01-12T08:22:39.161Z,86.80
2018-01-12T08:25:05.851Z,86.80
2018-01-12T08:27:31.781Z,86.70
2018-01-12T08:29:57.712Z,86.40
2018-01-12T08:32:23.612Z,86.20
2018-01-12T08:34:50.300Z,86.20
2018-01-12T08:37:16.204Z,86.20
2018-01-12T08:39:42.868Z,85.60
2018-01-12T08:42:08.777Z,85.60
2018-01-12T08:44:35.433Z,85.70
2018-01-12T08:47:02.170Z,86.00
2018-01-12T08:49:28.101Z,86.00
2018-01-12T08:51:54.017Z,85.50
2018-01-12T08:54:19.933Z,86.00
2018-01-12T08:56:45.853Z,84.70
2018-01-12T08:59:11.764Z,84.40
2018-01-12T09:01:38.428Z,84.20
2018-01-12T09:04:04.365Z,84.10
2018-01-12T09:06:30.302Z,84.00
2018-01-12T09:08:56.260Z,84.20
2018-01-12T09:11:22.173Z,83.60
2018-01-12T09:13:55.225Z,83.90
2018-01-12T09:16:26.998Z,83.60
2018-01-12T09:19:05.633Z,84.00
2018-01-12T09:21:35.553Z,84.00
2018-01-12T09:24:01.472Z,83.00
2018-01-12T09:26:27.427Z,82.20
2018-01-12T09:28:54.820Z,81.60
2018-01-12T09:31:27.301Z,80.70
2018-01-12T09:33:53.993Z,81.60
2018-01-12T09:36:19.921Z,80.90
2018-01-12T09:38:51.710Z,79.50
2018-01-12T09:41:17.619Z,79.70
2018-01-12T09:43:43.528Z,79.80
2018-01-12T09:46:10.194Z,80.30
2018-01-12T09:48:36.104Z,80.30
2018-01-12T09:51:02.039Z,81.30
2018-01-12T09:53:28.737Z,82.20
2018-01-12T09:55:54.652Z,82.20
2018-01-12T09:58:20.626Z,83.20
2018-01-12T10:00:59.449Z,83.60
2018-01-12T10:03:25.371Z,83.10
2018-01-12T10:05:51.297Z,82.90
2018-01-12T10:08:23.324Z,82.40
2018-01-12T10:10:49.241Z,82.20
2018-01-12T10:13:15.159Z,83.10
2018-01-12T10:15:41.068Z,83.80
2018-01-12T10:18:11.868Z,83.90
2018-01-12T10:20:37.808Z,83.90
2018-01-12T10:23:05.240Z,82.90
2018-01-12T10:25:31.182Z,82.90
2018-01-12T10:27:57.188Z,82.50
2018-01-12T10:33:16.902Z,81.10
2018-01-12T10:35:52.877Z,80.60
2018-01-12T10:38:19.540Z,80.60
2018-01-12T10:40:52.653Z,80.60
2018-01-12T10:43:18.581Z,80.10
2018-01-12T10:45:52.741Z,80.20
2018-01-12T10:48:27.886Z,80.10
2018-01-12T10:50:56.697Z,79.90
2018-01-12T10:53:22.636Z,80.30
2018-01-12T10:55:48.552Z,79.80
2018-01-12T10:58:14.498Z,79.60
2018-01-12T11:00:40.414Z,79.30
2018-01-12T11:03:06.336Z,80.40
2018-01-12T11:05:32.289Z,80.90
2018-01-12T11:07:58.249Z,80.40
2018-01-12T11:10:24.168Z,79.10
2018-01-12T11:12:50.088Z,79.20
2018-01-12T11:15:16.016Z,79.00
2018-01-12T11:17:41.936Z,79.40
2018-01-12T11:20:07.864Z,79.60
2018-01-12T11:22:33.800Z,79.20
2018-01-12T11:24:59.753Z,79.10
2018-01-12T11:27:25.715Z,79.40
2018-01-12T11:29:51.644Z,78.90
2018-01-12T11:32:17.562Z,77.50
2018-01-12T11:34:43.468Z,79.50
2018-01-12T11:37:09.396Z,78.10
2018-01-12T11:39:36.065Z,78.10
2018-01-12T11:42:02.029Z,78.00
2018-01-12T11:44:27.990Z,76.80
2018-01-12T11:46:53.926Z,77.50
2018-01-12T11:49:19.840Z,79.00
2018-01-12T11:51:45.793Z,79.50
2018-01-12T11:54:11.711Z,80.20
2018-01-12T11:56:37.651Z,80.50
2018-01-12T11:59:03.617Z,80.60
2018-01-12T12:01:30.432Z,81.30
2018-01-12T12:03:56.391Z,81.30
2018-01-12T12:06:22.310Z,81.20
2018-01-12T12:08:48.236Z,81.60
2018-01-12T12:11:14.156Z,79.60
2018-01-12T12:13:40.076Z,78.50
2018-01-12T12:16:06.090Z,78.90
2018-01-12T12:18:31.996Z,78.10
2018-01-12T12:20:57.988Z,78.20
2018-01-12T12:23:23.905Z,77.90
2018-01-12T12:25:49.811Z,77.80
2018-01-12T12:28:16.476Z,78.00
2018-01-12T12:30:43.168Z,77.90
2018-01-12T12:33:09.106Z,77.90
2018-01-12T12:35:35.112Z,77.40
2018-01-12T12:38:01.068Z,77.30
2018-01-12T12:40:27.017Z,78.20
2018-01-12T12:42:52.945Z,78.20
2018-01-12T12:45:18.852Z,77.00
2018-01-12T12:47:44.827Z,77.70
2018-01-12T12:50:10.739Z,77.70
2018-01-12T12:52:36.673Z,78.50
2018-01-12T12:55:02.613Z,78.00
2018-01-12T12:57:28.601Z,78.60
2018-01-12T12:59:55.255Z,79.40
2018-01-12T13:02:21.165Z,79.50
2018-01-12T13:04:47.076Z,79.20
2018-01-12T13:07:12.990Z,79.60
2018-01-12T13:09:38.896Z,79.40
2018-01-12T13:12:04.897Z,79.90
2018-01-12T13:14:30.857Z,80.10
2018-01-12T13:16:56.850Z,80.50
2018-01-12T13:19:22.787Z,80.50
2018-01-12T13:21:48.729Z,80.20
2018-01-12T13:24:14.649Z,80.50
2018-01-12T13:26:40.603Z,80.20
2018-01-12T13:29:06.492Z,80.00
2018-01-12T13:31:32.420Z,79.70
2018-01-12T13:33:58.365Z,79.70
2018-01-12T13:36:24.292Z,78.70
2018-01-12T13:38:50.208Z,78.60
2018-01-12T13:41:16.140Z,78.60
2018-01-12T13:43:42.808Z,78.60
2018-01-12T13:46:08.729Z,78.60
2018-01-12T13:48:34.705Z,78.40
2018-01-12T13:51:00.661Z,78.40
2018-01-12T13:53:26.596Z,79.40
2018-01-12T13:55:52.512Z,79.40
2018-01-12T13:58:18.444Z,80.00
2018-01-12T14:00:44.356Z,79.80
2018-01-12T14:03:10.272Z,80.30
2018-01-12T14:05:36.217Z,80.30
2018-01-12T14:08:02.157Z,80.50
2018-01-12T14:10:28.115Z,79.00
2018-01-12T14:12:54.061Z,78.30
2018-01-12T14:15:19.980Z,78.00
2018-01-12T14:17:45.892Z,77.60
2018-01-12T14:20:11.829Z,77.70
2018-01-12T14:22:37.742Z,78.20
2018-01-12T14:25:03.702Z,78.70
2018-01-12T14:27:29.676Z,78.70
2018-01-12T14:29:55.600Z,78.20
2018-01-12T14:32:21.518Z,78.50
2018-01-12T14:34:47.434Z,78.30
2018-01-12T14:37:13.377Z,78.60
2018-01-12T14:39:39.320Z,78.10
2018-01-12T14:42:05.306Z,78.30
2018-01-12T14:44:32.069Z,78.50
2018-01-12T14:46:58.748Z,78.80
2018-01-12T14:49:24.668Z,78.80
2018-01-12T14:51:50.576Z,78.60
2018-01-12T14:54:17.233Z,79.20
2018-01-12T14:56:43.888Z,79.60
2018-01-12T14:59:10.548Z,79.40
2018-01-12T15:01:36.468Z,79.40
2018-01-12T15:04:03.150Z,79.70
2018-01-12T15:06:29.183Z,79.70
2018-01-12T15:08:55.106Z,79.60
2018-01-12T15:11:21.012Z,80.10
2018-01-12T15:13:46.927Z,80.50
2018-01-12T15:16:12.856Z,80.60
2018-01-12T15:18:38.780Z,80.50
2018-01-12T15:21:04.760Z,80.70
2018-01-12T15:23:31.450Z,79.90
2018-01-12T15:25:57.509Z,79.80
2018-01-12T15:28:23.424Z,79.60
2018-01-12T15:30:49.334Z,80.20
2018-01-12T15:33:15.244Z,80.80
2018-01-12T15:35:41.908Z,80.80
2018-01-12T15:38:08.561Z,81.20
2018-01-12T15:40:34.569Z,81.20
2018-01-12T15:43:00.503Z,81.20
2018-01-12T15:45:26.483Z,81.80
2018-01-12T15:47:52.422Z,82.90
2018-01-12T15:50:18.340Z,82.20
2018-01-12T15:52:44.254Z,82.40
2018-01-12T15:55:10.179Z,82.10
2018-01-12T15:57:36.113Z,81.80
2018-01-12T16:00:02.089Z,82.20
2018-01-12T16:02:28.102Z,82.20
2018-01-12T16:04:54.772Z,82.20
2018-01-12T16:07:20.676Z,82.10
2018-01-12T16:09:47.346Z,82.00
2018-01-12T16:12:13.252Z,82.00
2018-01-12T16:14:39.189Z,81.90
2018-01-12T16:17:05.901Z,81.40
2018-01-12T16:19:31.863Z,82.00
2018-01-12T16:21:57.852Z,81.50
2018-01-12T16:24:23.776Z,81.00
2018-01-12T16:26:49.717Z,81.50
2018-01-12T16:29:15.644Z,81.80
2018-01-12T16:31:41.573Z,82.60
2018-01-12T16:34:07.538Z,82.30
2018-01-12T16:36:33.481Z,82.30
2018-01-12T16:38:59.436Z,82.10
2018-01-12T16:41:26.097Z,82.50
2018-01-12T16:43:52.003Z,82.50
2018-01-12T16:46:17.915Z,82.70
2018-01-12T16:48:43.826Z,82.80
2018-01-12T16:51:10.497Z,82.60
2018-01-12T16:53:36.414Z,82.60
2018-01-12T16:56:02.368Z,82.20
2018-01-12T16:58:28.383Z,82.90
2018-01-12T17:00:55.034Z,82.60
2018-01-12T17:03:21.680Z,81.80
2018-01-12T17:05:48.348Z,81.40
2018-01-12T17:08:14.252Z,81.40
2018-01-12T17:10:40.909Z,81.20
2018-01-12T17:13:07.658Z,81.00
2018-01-12T17:15:34.386Z,81.10
2018-01-12T17:18:01.192Z,81.00
2018-01-12T17:20:27.225Z,81.00
2018-01-12T17:22:53.152Z,81.30
2018-01-12T17:25:19.080Z,81.50
2018-01-12T17:27:45.733Z,81.70
2018-01-12T17:30:12.385Z,81.40
2018-01-12T17:32:39.036Z,81.40
2018-01-12T17:35:05.729Z,81.10
2018-01-12T17:37:31.668Z,81.10
2018-01-12T17:39:57.646Z,81.30
2018-01-12T17:42:24.297Z,81.70
2018-01-12T17:44:50.954Z,81.80
2018-01-12T17:47:17.621Z,81.50
2018-01-12T17:49:43.608Z,81.40
2018-01-12T17:52:09.528Z,81.60
2018-01-12T17:54:35.475Z,81.50
2018-01-12T17:57:01.401Z,81.70
2018-01-12T17:59:27.365Z,81.70
2018-01-12T18:01:53.297Z,81.50
2018-01-12T18:04:19.217Z,81.70
2018-01-12T18:06:45.136Z,81.60
2018-01-12T18:09:11.051Z,81.70
2018-01-12T18:11:36.984Z,82.00
2018-01-12T18:14:02.928Z,81.60
2018-01-12T18:16:28.906Z,81.70
2018-01-12T18:18:55.556Z,82.20
2018-01-12T18:21:22.225Z,82.40
2018-01-12T18:23:48.884Z,81.80
2018-01-12T18:26:14.803Z,81.70
2018-01-12T18:28:41.465Z,82.00
2018-01-12T18:31:08.140Z,81.70
2018-01-12T18:33:34.187Z,81.70
2018-01-12T18:36:00.189Z,81.60
2018-01-12T18:38:26.109Z,81.80
2018-01-12T18:40:52.784Z,81.90
2018-01-12T18:43:18.705Z,81.80
2018-01-12T18:45:45.380Z,81.20
2018-01-12T18:48:11.299Z,81.20
2018-01-12T18:50:37.238Z,81.70
2018-01-12T18:53:03.172Z,82.00
2018-01-12T18:55:29.152Z,82.00
2018-01-12T18:57:55.073Z,81.60
2018-01-12T19:00:20.976Z,82.10
2018-01-12T19:02:46.887Z,82.30
2018-01-12T19:05:13.585Z,81.80
2018-01-12T19:07:39.550Z,81.70
2018-01-12T19:10:05.534Z,81.50
2018-01-12T19:12:31.529Z,81.50
2018-01-12T19:14:58.255Z,82.50
2018-01-12T19:17:24.197Z,82.00
2018-01-12T19:19:50.119Z,82.10
2018-01-12T19:22:16.028Z,82.00
2018-01-12T19:24:41.954Z,82.30
2018-01-12T19:27:07.904Z,82.20
2018-01-12T19:29:33.838Z,82.40
2018-01-12T19:31:59.868Z,82.60
2018-01-12T19:34:25.790Z,83.10
2018-01-12T19:36:51.701Z,82.90
2018-01-12T19:39:18.365Z,82.60
2018-01-12T19:41:45.020Z,82.40
2018-01-12T19:44:10.936Z,82.30
2018-01-12T19:46:37.609Z,82.60
2018-01-12T19:49:03.594Z,82.60
2018-01-12T19:51:29.548Z,82.60
2018-01-12T19:53:56.287Z,82.70
2018-01-12T19:56:22.273Z,82.20
2018-01-12T19:58:48.269Z,81.90
2018-01-12T20:01:14.193Z,82.30
2018-01-12T20:03:40.102Z,82.30
2018-01-12T20:06:06.069Z,82.30
2018-01-12T20:08:32.020Z,82.30
2018-01-12T20:10:58.756Z,82.20
2018-01-12T20:13:24.692Z,82.20
2018-01-12T20:15:50.689Z,82.00
2018-01-12T20:18:16.599Z,81.90
2018-01-12T20:20:42.516Z,82.20
2018-01-12T20:23:09.262Z,82.10
2018-01-12T20:25:35.995Z,82.00
2018-01-12T20:28:01.960Z,82.00
2018-01-12T20:30:27.994Z,81.90
2018-01-12T20:32:53.920Z,82.40
2018-01-12T20:35:20.581Z,82.60
2018-01-12T20:37:47.265Z,82.70
2018-01-12T20:40:13.180Z,82.70
2018-01-12T20:42:39.105Z,82.40
2018-01-12T20:45:05.760Z,82.60
2018-01-12T20:47:32.533Z,82.90
2018-01-12T20:49:58.561Z,82.90
2018-01-12T20:52:24.480Z,82.90
2018-01-12T20:54:50.392Z,83.10
2018-01-12T20:57:16.307Z,83.10
2018-01-12T20:59:42.216Z,83.00
2018-01-12T21:02:08.137Z,83.10
2018-01-12T21:04:34.078Z,82.30
2018-01-12T21:07:00.106Z,82.00
2018-01-12T21:09:26.029Z,81.90
2018-01-12T21:11:51.950Z,81.20
2018-01-12T21:14:18.389Z,81.50
2018-01-12T21:16:44.346Z,81.90
2018-01-12T21:19:10.548Z,81.40
2018-01-12T21:21:36.522Z,82.00
2018-01-12T21:24:02.469Z,81.50
2018-01-12T21:26:28.883Z,80.70
2018-01-12T21:28:54.836Z,80.70
2018-01-12T21:31:20.821Z,80.70
2018-01-12T21:33:46.738Z,80.70
2018-01-12T21:36:12.676Z,80.60
2018-01-12T21:38:38.598Z,80.70
2018-01-12T21:41:04.525Z,80.70
2018-01-12T21:43:30.469Z,80.50
2018-01-12T21:45:56.416Z,80.40
2018-01-12T21:48:22.342Z,80.50
2018-01-12T21:50:48.269Z,80.60
2018-01-12T21:53:14.194Z,80.60
2018-01-12T21:55:40.113Z,80.30
2018-01-12T21:58:06.021Z,80.20
2018-01-12T22:00:32.686Z,80.00
2018-01-12T22:02:58.659Z,79.90
2018-01-12T22:05:24.577Z,79.80
2018-01-12T22:07:50.516Z,79.60
2018-01-12T22:10:16.428Z,79.70
2018-01-12T22:12:42.353Z,79.60
2018-01-12T22:15:09.023Z,80.40
2018-01-12T22:17:35.017Z,80.30
2018-01-12T22:20:00.951Z,80.10
2018-01-12T22:22:26.914Z,79.70
2018-01-12T22:24:52.824Z,79.90
2018-01-12T22:27:19.490Z,79.90
2018-01-12T22:29:46.139Z,79.10
2018-01-12T22:32:12.802Z,79.00
2018-01-12T22:34:38.717Z,78.90
2018-01-12T22:37:04.657Z,79.10
2018-01-12T22:39:31.350Z,80.10
2018-01-12T22:41:57.296Z,80.10
2018-01-12T22:44:23.213Z,79.50
2018-01-12T22:46:49.128Z,79.60
2018-01-12T22:49:15.044Z,80.00
2018-01-12T22:51:41.710Z,79.30
2018-01-12T22:54:07.629Z,79.20
2018-01-12T22:56:34.335Z,79.70
2018-01-12T22:59:00.326Z,79.70
2018-01-12T23:01:26.261Z,79.80
2018-01-12T23:03:52.176Z,79.70
2018-01-12T23:06:18.844Z,80.10
2018-01-12T23:08:45.487Z,80.10
2018-01-12T23:11:12.172Z,80.30
2018-01-12T23:13:38.087Z,80.20
2018-01-12T23:16:04.028Z,80.50
2018-01-12T23:18:29.976Z,80.90
2018-01-12T23:20:55.892Z,80.70
2018-01-12T23:23:21.813Z,80.30
2018-01-12T23:25:48.460Z,80.90
2018-01-12T23:28:15.120Z,80.70
2018-01-12T23:30:41.795Z,80.50
2018-01-12T23:33:07.716Z,80.40
2018-01-12T23:35:33.650Z,80.80
2018-01-12T23:37:59.697Z,80.90
2018-01-12T23:40:25.612Z,81.00
2018-01-12T23:42:52.268Z,81.80
2018-01-12T23:45:18.186Z,81.80
2018-01-12T23:47:44.843Z,81.80
2018-01-12T23:50:11.505Z,82.30
2018-01-12T23:52:37.433Z,82.20
2018-01-12T23:55:04.151Z,82.00
2018-01-12T23:57:30.121Z,82.00
2018-01-12T23:59:56.045Z,82.00
